Time;durP1;ratioP1;P1;durP2;ratioP2;P2;SDS_P1;SDS_P2;PMS_P1;PMS_P2;Temp;Humidity;BMP_temperature;BMP_pressure;BME280_temperature;BME280_humidity;BME280_pressure;Samples;Min_cycle;Max_cycle;Signal;HPM_P1;HPM_P2
2022/08/22 00:00:38;;;;;;;9.52;3.97;;;18.30;99.90;;;;;;5011466;28;20181;-63
2022/08/22 00:03:39;;;;;;;15.23;4.30;;;18.30;99.90;;;;;;5012027;28;20361;-60
2022/08/22 00:06:04;;;;;;;17.40;4.38;;;18.20;99.90;;;;;;5011905;28;20076;-60
2022/08/22 00:08:40;;;;;;;10.32;4.28;;;18.20;99.90;;;;;;5011595;28;20046;-60
2022/08/22 00:11:24;;;;;;;9.32;4.47;;;18.10;99.90;;;;;;5010743;28;20072;-60
2022/08/22 00:14:11;;;;;;;15.55;4.45;;;18.00;99.90;;;;;;5014844;28;20053;-60
2022/08/22 00:16:59;;;;;;;10.10;4.57;;;18.00;99.90;;;;;;5014575;28;20131;-60
2022/08/22 00:19:46;;;;;;;10.27;4.00;;;18.00;99.90;;;;;;5015267;28;20048;-60
2022/08/22 00:22:40;;;;;;;10.63;4.30;;;18.00;99.90;;;;;;5015198;28;20430;-60
2022/08/22 00:25:23;;;;;;;9.93;3.85;;;18.00;99.90;;;;;;5015801;28;20049;-60
2022/08/22 00:28:32;;;;;;;9.95;3.97;;;18.00;99.90;;;;;;5015337;28;20085;-60
2022/08/22 00:31:17;;;;;;;9.07;4.07;;;17.90;99.90;;;;;;4986659;28;20058;-60
2022/08/22 00:34:06;;;;;;;8.93;4.07;;;17.90;99.90;;;;;;5014964;28;20042;-59
2022/08/22 00:36:50;;;;;;;12.50;4.45;;;18.00;99.90;;;;;;5013535;28;20395;-59
2022/08/22 00:39:34;;;;;;;10.27;4.38;;;18.00;99.90;;;;;;5014476;28;20517;-59
2022/08/22 00:42:20;;;;;;;7.82;3.40;;;18.00;99.90;;;;;;5013819;28;20085;-60
2022/08/22 00:44:59;;;;;;;10.48;3.90;;;18.00;99.90;;;;;;5014379;28;20042;-59
2022/08/22 00:47:37;;;;;;;9.45;4.00;;;18.00;99.90;;;;;;5013416;28;20395;-60
2022/08/22 00:50:02;;;;;;;7.40;3.72;;;18.00;99.90;;;;;;5014739;28;20513;-60
2022/08/22 00:52:51;;;;;;;9.98;3.45;;;18.00;99.90;;;;;;5014527;28;20062;-60
2022/08/22 00:55:44;;;;;;;9.20;3.60;;;18.00;99.90;;;;;;5014510;28;20062;-59
2022/08/22 00:58:21;;;;;;;9.20;3.75;;;18.00;99.90;;;;;;4997391;28;20157;-60
2022/08/22 01:00:53;;;;;;;7.97;3.35;;;17.90;99.90;;;;;;5014500;28;20037;-60
2022/08/22 01:03:39;;;;;;;8.40;3.80;;;17.90;99.90;;;;;;5014250;28;20128;-60
2022/08/22 01:06:07;;;;;;;8.50;3.90;;;17.80;99.90;;;;;;5014408;28;20483;-59
2022/08/22 01:08:44;;;;;;;9.27;3.42;;;17.80;99.90;;;;;;5014130;28;20183;-61
2022/08/22 01:11:31;;;;;;;11.60;3.70;;;17.80;99.90;;;;;;5013285;28;20621;-59
2022/08/22 01:14:18;;;;;;;10.02;3.72;;;17.80;99.90;;;;;;5014031;28;20053;-60
2022/08/22 01:16:47;;;;;;;12.13;3.60;;;17.80;99.90;;;;;;5014315;28;20064;-59
2022/08/22 01:19:18;;;;;;;13.50;4.47;;;17.80;99.90;;;;;;5014269;28;20057;-60
2022/08/22 01:22:10;;;;;;;9.85;3.58;;;17.90;99.90;;;;;;5014273;28;20050;-59
2022/08/22 01:25:16;;;;;;;8.85;3.65;;;17.90;99.90;;;;;;5011637;28;20288;-59
2022/08/22 01:27:48;;;;;;;10.07;3.63;;;17.90;99.90;;;;;;5013773;28;20050;-60
2022/08/22 01:31:11;;;;;;;10.30;3.50;;;18.00;99.90;;;;;;5013984;28;20100;-60
2022/08/22 01:33:58;;;;;;;10.30;3.80;;;18.00;99.90;;;;;;4952598;29;20090;-60
2022/08/22 01:37:06;;;;;;;10.95;3.97;;;17.90;99.90;;;;;;4936542;29;20046;-59
2022/08/22 01:39:37;;;;;;;13.18;4.07;;;17.90;99.90;;;;;;5007269;28;20050;-58
2022/08/22 01:42:34;;;;;;;9.55;4.28;;;17.90;99.90;;;;;;5013783;28;20136;-59
2022/08/22 01:45:30;;;;;;;8.43;3.97;;;17.80;99.90;;;;;;4996518;28;20042;-59
2022/08/22 01:47:59;;;;;;;9.32;4.20;;;17.80;99.90;;;;;;5012851;28;20329;-59
2022/08/22 01:50:36;;;;;;;11.25;4.38;;;17.80;99.90;;;;;;5013520;28;20183;-59
2022/08/22 01:53:13;;;;;;;11.25;4.97;;;17.70;99.90;;;;;;5012616;28;20069;-59
2022/08/22 01:55:41;;;;;;;11.20;4.68;;;17.70;99.90;;;;;;5012093;28;20065;-59
2022/08/22 01:58:20;;;;;;;9.23;5.07;;;17.70;99.90;;;;;;5013590;28;20387;-59
2022/08/22 02:01:12;;;;;;;12.32;4.78;;;17.70;99.90;;;;;;5012253;28;20058;-59
2022/08/22 02:04:04;;;;;;;10.85;4.38;;;17.70;99.90;;;;;;5013243;28;20392;-59
2022/08/22 02:07:01;;;;;;;9.27;4.30;;;17.60;99.90;;;;;;5013047;28;20526;-59
2022/08/22 02:09:58;;;;;;;10.35;4.38;;;17.60;99.90;;;;;;5013096;28;20045;-59
2022/08/22 02:12:30;;;;;;;9.25;4.75;;;17.60;99.90;;;;;;5012893;28;20053;-59
2022/08/22 02:15:13;;;;;;;10.40;4.75;;;17.60;99.90;;;;;;5013286;28;20057;-59
2022/08/22 02:18:05;;;;;;;13.55;4.50;;;17.60;99.90;;;;;;5013003;28;20042;-60
2022/08/22 02:21:07;;;;;;;7.55;4.40;;;17.60;99.90;;;;;;4989598;28;20115;-59
2022/08/22 02:23:56;;;;;;;10.95;4.45;;;17.50;99.90;;;;;;5012884;28;20111;-60
2022/08/22 02:26:36;;;;;;;10.50;4.97;;;17.50;99.90;;;;;;5013149;28;20046;-59
2022/08/22 02:29:13;;;;;;;8.70;4.63;;;17.40;99.90;;;;;;5012011;28;20457;-59
2022/08/22 02:31:52;;;;;;;8.82;4.35;;;17.50;99.90;;;;;;5011703;28;20064;-59
2022/08/22 02:34:57;;;;;;;10.05;4.35;;;17.40;99.90;;;;;;5012964;28;20053;-59
2022/08/22 02:37:54;;;;;;;8.10;4.20;;;17.40;99.90;;;;;;5013037;28;20050;-59
2022/08/22 02:40:30;;;;;;;8.55;4.30;;;17.30;99.90;;;;;;5011918;28;20297;-59
2022/08/22 02:43:35;;;;;;;8.45;4.32;;;17.30;99.90;;;;;;5011768;28;20054;-59
2022/08/22 02:46:02;;;;;;;;;;;17.30;99.90;;;;;;5010067;28;20495;-58
2022/08/22 02:48:57;;;;;;;11.43;4.65;;;17.30;99.90;;;;;;5012337;28;19921;-59
2022/08/22 02:51:38;;;;;;;9.93;4.57;;;17.30;99.90;;;;;;5011669;28;20367;-59
2022/08/22 02:54:38;;;;;;;7.30;4.25;;;17.20;99.90;;;;;;5011469;28;20045;-59
2022/08/22 02:57:37;;;;;;;10.10;4.75;;;17.20;99.90;;;;;;5012686;28;20046;-59
2022/08/22 03:00:14;;;;;;;8.40;4.20;;;17.10;99.90;;;;;;5011443;28;20503;-59
2022/08/22 03:02:55;;;;;;;13.40;5.30;;;17.10;99.90;;;;;;5011082;28;20049;-59
2022/08/22 03:05:36;;;;;;;11.65;4.35;;;17.10;99.90;;;;;;5012559;28;20050;-59
2022/08/22 03:08:11;;;;;;;9.68;4.25;;;17.10;99.90;;;;;;5012451;28;20092;-60
2022/08/22 03:10:46;;;;;;;9.70;4.47;;;17.10;99.90;;;;;;5012152;28;20049;-61
2022/08/22 03:13:45;;;;;;;12.85;4.72;;;17.00;99.90;;;;;;5010882;28;20393;-60
2022/08/22 03:16:36;;;;;;;10.90;4.70;;;17.00;99.90;;;;;;5012470;28;20088;-59
2022/08/22 03:19:10;;;;;;;10.07;4.53;;;16.90;99.90;;;;;;4994840;28;20042;-59
2022/08/22 03:21:54;;;;;;;9.35;4.15;;;17.00;99.90;;;;;;5012099;28;20053;-59
2022/08/22 03:24:47;;;;;;;15.38;5.10;;;16.90;99.90;;;;;;5012315;28;20058;-59
2022/08/22 03:27:42;;;;;;;12.80;5.13;;;16.90;99.90;;;;;;4994875;28;20542;-60
2022/08/22 03:30:41;;;;;;;11.60;4.90;;;16.80;99.90;;;;;;5004013;28;20542;-59
2022/08/22 03:33:15;;;;;;;12.32;4.55;;;16.80;99.90;;;;;;5011726;28;20450;-59
2022/08/22 03:35:41;;;;;;;12.38;5.10;;;16.70;99.90;;;;;;5011773;28;20427;-59
2022/08/22 03:38:25;;;;;;;12.23;6.03;;;16.70;99.90;;;;;;5012083;28;20053;-59
2022/08/22 03:41:05;;;;;;;11.18;4.95;;;16.70;99.90;;;;;;5011691;28;20057;-58
2022/08/22 03:43:59;;;;;;;12.05;4.90;;;16.70;99.90;;;;;;5011926;28;20042;-58
2022/08/22 03:46:48;;;;;;;13.48;5.38;;;16.70;99.90;;;;;;4994540;28;20054;-58
2022/08/22 03:49:51;;;;;;;10.52;4.57;;;16.60;99.90;;;;;;5015697;28;20507;-58
2022/08/22 03:53:05;;;;;;;13.48;5.32;;;16.70;99.90;;;;;;5016092;28;20050;-60
2022/08/22 03:55:44;;;;;;;10.75;5.22;;;16.60;99.90;;;;;;5015717;28;20054;-61
2022/08/22 03:58:28;;;;;;;9.77;5.20;;;16.60;99.90;;;;;;5015064;28;20445;-61
2022/08/22 04:01:05;;;;;;;10.50;5.07;;;16.60;99.90;;;;;;5015786;28;20049;-61
2022/08/22 04:04:03;;;;;;;10.80;5.15;;;16.60;99.90;;;;;;5015889;28;20277;-60
2022/08/22 04:07:08;;;;;;;10.20;5.00;;;16.60;99.90;;;;;;5015874;28;20085;-61
2022/08/22 04:10:11;;;;;;;12.52;5.53;;;16.60;99.90;;;;;;4984561;28;20068;-60
2022/08/22 04:12:45;;;;;;;10.55;5.10;;;16.50;99.90;;;;;;5016813;28;20510;-64
2022/08/22 04:15:30;;;;;;;;;;;16.50;99.90;;;;;;5014573;28;20054;-61
2022/08/22 04:18:17;;;;;;;10.40;5.43;;;16.40;99.90;;;;;;5015332;28;19964;-61
2022/08/22 04:21:01;;;;;;;11.35;5.55;;;16.40;99.90;;;;;;5015052;28;20271;-61
2022/08/22 04:23:54;;;;;;;11.02;5.40;;;16.40;99.90;;;;;;5015267;28;20045;-60
2022/08/22 04:26:26;;;;;;;11.10;5.88;;;16.40;99.90;;;;;;5015067;28;20057;-61
2022/08/22 04:29:05;;;;;;;10.20;5.22;;;16.30;99.90;;;;;;5014755;28;20125;-60
2022/08/22 04:31:35;;;;;;;14.20;6.75;;;16.30;99.90;;;;;;5013903;28;20045;-61
2022/08/22 04:34:14;;;;;;;12.70;5.78;;;16.30;99.90;;;;;;5014653;28;20088;-60
2022/08/22 04:36:49;;;;;;;17.45;5.90;;;16.30;99.90;;;;;;5015122;28;20057;-65
2022/08/22 04:39:31;;;;;;;16.00;6.43;;;16.30;99.90;;;;;;5014822;28;20510;-60
2022/08/22 04:42:32;;;;;;;13.10;6.28;;;16.30;99.90;;;;;;5014943;28;20104;-60
2022/08/22 04:45:11;;;;;;;8.98;5.53;;;16.30;99.90;;;;;;5003970;28;20116;-60
2022/08/22 04:47:41;;;;;;;9.73;6.20;;;16.20;99.90;;;;;;4997697;28;20088;-60
2022/08/22 04:50:25;;;;;;;11.68;6.15;;;16.20;99.90;;;;;;5015352;28;20096;-61
2022/08/22 04:53:17;;;;;;;16.20;6.47;;;16.30;99.90;;;;;;5014741;28;20046;-60
2022/08/22 04:56:04;;;;;;;13.02;6.05;;;16.30;99.90;;;;;;4991504;28;20514;-60
2022/08/22 04:58:40;;;;;;;11.57;6.65;;;16.30;99.90;;;;;;5014603;28;20085;-62
2022/08/22 05:01:06;;;;;;;13.27;6.57;;;16.30;99.90;;;;;;5014218;28;20182;-61
2022/08/22 05:03:39;;;;;;;10.90;6.32;;;16.40;99.90;;;;;;4997391;28;20159;-60
2022/08/22 05:06:06;;;;;;;11.75;7.13;;;16.30;99.90;;;;;;5014433;28;20061;-60
2022/08/22 05:08:36;;;;;;;11.90;6.22;;;16.30;99.90;;;;;;5014573;28;20050;-60
2022/08/22 05:11:04;;;;;;;12.27;6.82;;;16.30;99.90;;;;;;5012631;28;20050;-60
2022/08/22 05:13:41;;;;;;;12.15;6.20;;;16.40;99.90;;;;;;5014558;28;20486;-61
2022/08/22 05:16:17;;;;;;;12.13;6.05;;;16.40;99.90;;;;;;5014257;28;20061;-61
2022/08/22 05:18:54;;;;;;;9.20;5.43;;;16.40;99.90;;;;;;5013457;28;20103;-60
2022/08/22 05:21:24;;;;;;;10.00;6.00;;;16.40;99.90;;;;;;5013331;28;20068;-60
2022/08/22 05:24:04;;;;;;;7.90;5.68;;;16.40;99.90;;;;;;5014044;28;20482;-60
2022/08/22 05:26:37;;;;;;;11.45;5.97;;;16.50;99.90;;;;;;5014326;28;20048;-60
2022/08/22 05:29:09;;;;;;;13.53;6.17;;;16.60;99.90;;;;;;5013948;28;20041;-59
2022/08/22 05:31:46;;;;;;;13.65;6.43;;;16.50;99.90;;;;;;5014164;28;20050;-60
2022/08/22 05:34:15;;;;;;;12.80;6.18;;;16.50;99.90;;;;;;5014229;28;20052;-60
2022/08/22 05:37:08;;;;;;;11.48;5.65;;;16.60;99.90;;;;;;5014056;28;20176;-60
2022/08/22 05:39:39;;;;;;;10.85;6.32;;;16.60;99.90;;;;;;5011303;28;20159;-60
2022/08/22 05:42:31;;;;;;;12.63;5.70;;;16.70;99.90;;;;;;5013796;28;20046;-60
2022/08/22 05:45:00;;;;;;;9.38;5.65;;;16.70;99.90;;;;;;5011428;28;20143;-60
2022/08/22 05:47:38;;;;;;;9.18;5.45;;;16.80;99.90;;;;;;5013768;28;20054;-61
2022/08/22 05:50:14;;;;;;;11.57;5.40;;;16.80;99.90;;;;;;5013506;28;20116;-60
2022/08/22 05:53:06;;;;;;;8.75;5.57;;;16.90;99.90;;;;;;5013787;28;20466;-60
2022/08/22 05:55:46;;;;;;;11.20;5.75;;;16.90;99.90;;;;;;5013771;28;20045;-61
2022/08/22 05:58:42;;;;;;;7.63;4.93;;;16.90;99.90;;;;;;5013406;28;20046;-61
2022/08/22 06:01:30;;;;;;;14.15;5.53;;;17.00;99.90;;;;;;5013294;28;20064;-61
2022/08/22 06:04:20;;;;;;;9.32;5.25;;;17.00;99.90;;;;;;5013224;28;20120;-60
2022/08/22 06:07:00;;;;;;;12.60;6.22;;;17.20;99.90;;;;;;5012537;28;20116;-60
2022/08/22 06:09:25;;;;;;;10.60;5.80;;;17.30;99.90;;;;;;5011934;28;20050;-59
2022/08/22 06:12:03;;;;;;;14.88;7.05;;;17.30;99.90;;;;;;5012674;28;20100;-63
2022/08/22 06:14:40;;;;;;;13.00;6.28;;;17.40;99.90;;;;;;5011828;28;20057;-59
2022/08/22 06:17:11;;;;;;;15.27;7.05;;;17.40;99.90;;;;;;5011818;28;20058;-59
2022/08/22 06:19:41;;;;;;;11.07;6.30;;;17.50;99.90;;;;;;4995730;28;20504;-59
2022/08/22 06:22:09;;;;;;;11.63;5.60;;;17.60;99.90;;;;;;5011567;28;20499;-59
2022/08/22 06:24:36;;;;;;;11.43;6.15;;;17.80;99.90;;;;;;4995816;28;20066;-59
2022/08/22 06:27:10;;;;;;;14.43;6.05;;;18.30;99.90;;;;;;5011411;28;20156;-60
2022/08/22 06:29:48;;;;;;;13.15;5.85;;;18.70;99.90;;;;;;5011994;28;20056;-59
2022/08/22 06:32:30;;;;;;;9.38;5.30;;;18.90;99.90;;;;;;5012727;28;20351;-60
2022/08/22 06:35:03;;;;;;;10.73;5.53;;;19.10;99.90;;;;;;5011409;28;20517;-59
2022/08/22 06:37:38;;;;;;;10.77;4.80;;;19.20;99.90;;;;;;5013064;28;20046;-59
2022/08/22 06:40:07;;;;;;;9.18;4.90;;;19.30;99.90;;;;;;5011653;28;20317;-59
2022/08/22 06:42:39;;;;;;;12.25;5.15;;;19.40;99.90;;;;;;5012998;28;20052;-60
2022/08/22 06:45:16;;;;;;;11.40;5.05;;;19.40;99.90;;;;;;5012447;28;20048;-60
2022/08/22 06:47:51;;;;;;;12.55;5.20;;;19.40;99.90;;;;;;5012963;28;20053;-61
2022/08/22 06:50:23;;;;;;;9.35;4.68;;;19.40;99.90;;;;;;5012586;28;20050;-60
2022/08/22 06:53:14;;;;;;;12.15;4.93;;;19.50;99.90;;;;;;5012591;28;20108;-60
2022/08/22 06:55:46;;;;;;;11.90;4.68;;;19.50;99.90;;;;;;5012504;28;20486;-59
2022/08/22 06:58:24;;;;;;;10.23;4.28;;;19.50;99.90;;;;;;5012375;28;20045;-60
2022/08/22 07:00:56;;;;;;;12.57;4.55;;;19.50;99.90;;;;;;5011586;28;20042;-60
2022/08/22 07:03:39;;;;;;;12.05;4.10;;;19.60;99.90;;;;;;5012816;28;20067;-59
2022/08/22 07:06:05;;;;;;;14.82;4.20;;;19.60;99.90;;;;;;5012328;28;20069;-60
2022/08/22 07:08:33;;;;;;;12.57;4.38;;;19.60;99.90;;;;;;5012443;28;20045;-60
2022/08/22 07:11:18;;;;;;;11.20;4.47;;;19.70;99.90;;;;;;5010664;28;20503;-61
2022/08/22 07:13:53;;;;;;;11.18;4.38;;;19.60;99.90;;;;;;5010901;28;20129;-60
2022/08/22 07:16:50;;;;;;;9.65;3.90;;;19.70;99.90;;;;;;5012499;28;20261;-60
2022/08/22 07:19:24;;;;;;;14.02;3.83;;;19.70;99.90;;;;;;5010777;28;20116;-60
2022/08/22 07:21:50;;;;;;;13.88;4.47;;;19.70;99.90;;;;;;5012312;28;20129;-61
2022/08/22 07:24:21;;;;;;;8.98;4.25;;;19.70;99.90;;;;;;5010862;28;20061;-59
2022/08/22 07:27:16;;;;;;;14.18;4.10;;;19.70;99.90;;;;;;5012314;28;20407;-60
2022/08/22 07:29:50;;;;;;;15.05;4.53;;;19.80;99.90;;;;;;4994651;28;20057;-60
2022/08/22 07:32:16;;;;;;;12.07;4.35;;;19.80;99.90;;;;;;5010738;28;20129;-60
2022/08/22 07:35:18;;;;;;;11.02;4.00;;;19.80;99.90;;;;;;5012021;28;20124;-60
2022/08/22 07:37:43;;;;;;;14.05;4.30;;;19.80;99.90;;;;;;5012282;28;20657;-60
2022/08/22 07:40:37;;;;;;;12.85;4.40;;;19.70;99.90;;;;;;5011896;28;20129;-60
2022/08/22 07:43:11;;;;;;;11.10;3.92;;;19.70;99.90;;;;;;5011988;28;20396;-65
2022/08/22 07:46:18;;;;;;;9.50;3.97;;;19.70;99.90;;;;;;5011239;28;20119;-60
2022/08/22 07:48:52;;;;;;;10.13;3.92;;;19.80;99.90;;;;;;5011154;28;20060;-60
2022/08/22 07:51:30;;;;;;;11.38;3.85;;;19.80;99.90;;;;;;5011871;28;20046;-61
2022/08/22 07:54:06;;;;;;;11.55;3.75;;;19.80;99.90;;;;;;5010628;28;20475;-60
2022/08/22 07:57:13;;;;;;;10.20;4.90;;;19.90;99.90;;;;;;5011979;28;20050;-60
2022/08/22 07:59:46;;;;;;;11.85;4.28;;;20.00;99.90;;;;;;5011830;28;20049;-64
2022/08/22 08:02:13;;;;;;;9.80;3.92;;;20.00;99.90;;;;;;5010438;28;20054;-62
2022/08/22 08:04:41;;;;;;;9.25;4.40;;;20.00;99.90;;;;;;5010734;28;20125;-60
2022/08/22 08:07:10;;;;;;;12.57;4.18;;;20.00;99.90;;;;;;5011540;28;20042;-60
2022/08/22 08:09:52;;;;;;;11.35;4.03;;;20.10;99.90;;;;;;4994132;28;20052;-60
2022/08/22 08:12:20;;;;;;;13.32;4.32;;;20.20;99.90;;;;;;5011479;28;20136;-60
2022/08/22 08:14:51;;;;;;;11.32;3.80;;;20.30;99.90;;;;;;5010917;28;20289;-60
2022/08/22 08:17:27;;;;;;;8.57;3.63;;;20.40;99.90;;;;;;5010522;28;20408;-60
2022/08/22 08:19:54;;;;;;;13.55;3.67;;;20.50;99.90;;;;;;5010452;28;20548;-60
2022/08/22 08:22:26;;;;;;;10.80;4.13;;;20.60;99.90;;;;;;4993073;28;20151;-60
2022/08/22 08:24:56;;;;;;;11.25;3.65;;;20.60;99.90;;;;;;5010737;28;20049;-60
2022/08/22 08:30:18;;;;;;;12.18;3.13;;;20.60;99.90;;;;;;5009332;28;20156;-61
2022/08/22 08:32:58;;;;;;;9.95;3.20;;;20.70;99.90;;;;;;4993788;28;20084;-59
2022/08/22 08:35:28;;;;;;;10.57;2.90;;;20.70;99.90;;;;;;4996472;28;20124;-60
2022/08/22 08:38:07;;;;;;;12.57;3.50;;;20.80;99.90;;;;;;5014037;28;20530;-60
2022/08/22 08:40:33;;;;;;;11.40;3.10;;;20.80;99.90;;;;;;5012690;28;20568;-60
2022/08/22 08:43:28;;;;;;;14.27;3.60;;;20.80;99.90;;;;;;5012607;28;20133;-60
2022/08/22 08:46:09;;;;;;;11.15;2.85;;;20.80;99.90;;;;;;5013784;28;20049;-60
2022/08/22 08:49:03;;;;;;;10.40;2.97;;;20.80;99.90;;;;;;5012641;28;20463;-60
2022/08/22 08:51:47;;;;;;;10.70;3.05;;;20.90;99.90;;;;;;5013468;28;20054;-60
2022/08/22 08:54:42;;;;;;;9.20;3.70;;;20.90;99.90;;;;;;5012406;28;20105;-60
2022/08/22 08:57:11;;;;;;;;;;;21.00;99.90;;;;;;5014265;28;20062;-60
2022/08/22 09:00:13;;;;;;;13.05;3.72;;;21.10;99.90;;;;;;5013658;28;19929;-60
2022/08/22 09:03:04;;;;;;;8.18;2.72;;;21.20;99.90;;;;;;5012409;28;20056;-60
2022/08/22 09:05:47;;;;;;;10.55;3.13;;;21.30;99.90;;;;;;5013305;28;20038;-61
2022/08/22 09:08:22;;;;;;;10.05;3.33;;;21.40;99.90;;;;;;5012981;28;20488;-64
2022/08/22 09:11:17;;;;;;;10.93;2.78;;;21.60;99.90;;;;;;5012515;28;20058;-60
2022/08/22 09:13:43;;;;;;;10.95;3.30;;;22.00;99.90;;;;;;4948295;28;1120890;-61
2022/08/22 09:16:28;;;;;;;8.40;2.58;;;22.40;99.90;;;;;;5013374;28;20058;-60
2022/08/22 09:19:10;;;;;;;11.90;3.13;;;22.60;99.90;;;;;;5014821;28;20052;-60
2022/08/22 09:22:25;;;;;;;12.23;3.30;;;23.30;99.90;;;;;;5014181;28;20050;-60
2022/08/22 09:25:20;;;;;;;12.23;3.42;;;24.30;99.90;;;;;;5011384;28;20105;-62
2022/08/22 09:28:05;;;;;;;11.57;3.53;;;25.00;99.90;;;;;;5014499;28;20128;-61
2022/08/22 09:30:42;;;;;;;7.40;3.08;;;25.10;99.90;;;;;;5012972;28;20050;-60
2022/08/22 09:33:14;;;;;;;9.70;3.35;;;25.00;99.90;;;;;;5013203;28;20058;-59
2022/08/22 09:35:57;;;;;;;8.82;2.85;;;24.90;99.90;;;;;;5012580;28;20103;-60
2022/08/22 09:38:40;;;;;;;11.70;3.15;;;25.00;99.90;;;;;;5013823;28;20089;-60
2022/08/22 09:41:39;;;;;;;11.20;3.35;;;25.00;99.90;;;;;;5013753;28;20499;-60
2022/08/22 09:44:05;;;;;;;8.93;2.67;;;24.90;99.50;;;;;;5012762;28;20129;-61
2022/08/22 09:47:05;;;;;;;10.73;2.70;;;25.00;99.90;;;;;;5012854;28;20139;-60
2022/08/22 09:49:43;;;;;;;8.10;2.33;;;25.00;99.60;;;;;;5013600;28;20383;-61
2022/08/22 09:52:54;;;;;;;8.65;3.03;;;24.80;98.60;;;;;;5013937;28;20068;-61
2022/08/22 09:55:32;;;;;;;11.38;2.90;;;24.70;98.30;;;;;;4995900;28;20134;-62
2022/08/22 09:58:34;;;;;;;8.10;2.80;;;24.50;98.70;;;;;;5012496;28;20045;-62
2022/08/22 10:01:39;;;;;;;9.23;2.75;;;24.40;99.10;;;;;;5013640;28;20092;-60
2022/08/22 10:04:27;;;;;;;10.45;3.22;;;24.30;98.90;;;;;;4990697;28;20104;-60
2022/08/22 10:07:26;;;;;;;10.68;3.00;;;24.40;98.90;;;;;;5003908;28;20061;-61
2022/08/22 10:10:12;;;;;;;9.30;3.00;;;24.40;98.60;;;;;;5012210;28;20056;-61
2022/08/22 10:12:50;;;;;;;9.27;2.85;;;24.30;98.90;;;;;;5013096;28;20053;-61
2022/08/22 10:15:39;;;;;;;6.70;2.65;;;24.20;99.20;;;;;;5013302;28;20057;-61
2022/08/22 10:18:23;;;;;;;9.93;2.95;;;24.20;98.30;;;;;;5013235;28;20498;-62
2022/08/22 10:21:07;;;;;;;;;;;24.20;98.70;;;;;;5013505;28;20049;-61
2022/08/22 10:23:49;;;;;;;10.10;2.85;;;24.20;98.90;;;;;;5011721;28;19925;-60
2022/08/22 10:26:30;;;;;;;8.82;2.90;;;24.10;99.00;;;;;;5013034;28;20046;-61
2022/08/22 10:29:23;;;;;;;9.75;2.85;;;24.20;99.00;;;;;;5011790;28;20085;-60
2022/08/22 10:31:59;;;;;;;8.48;2.92;;;24.30;98.90;;;;;;5013008;28;20046;-60
2022/08/22 10:34:35;;;;;;;9.63;2.85;;;24.40;98.80;;;;;;5012643;28;20104;-61
2022/08/22 10:37:12;;;;;;;10.13;2.95;;;24.40;98.60;;;;;;5012958;28;20128;-60
2022/08/22 10:39:47;;;;;;;6.68;2.88;;;24.40;97.70;;;;;;5012642;28;20046;-60
2022/08/22 10:42:30;;;;;;;8.07;2.83;;;24.40;98.10;;;;;;5011980;28;20376;-61
2022/08/22 10:45:32;;;;;;;7.18;2.75;;;24.30;98.10;;;;;;5012917;28;20139;-61
2022/08/22 10:47:58;;;;;;;11.98;3.33;;;24.30;98.30;;;;;;5012791;28;20045;-61
2022/08/22 10:50:54;;;;;;;8.68;3.17;;;24.20;98.70;;;;;;5011430;28;20492;-61
2022/08/22 10:53:36;;;;;;;10.88;3.25;;;24.30;98.90;;;;;;5009724;28;20148;-61
2022/08/22 10:56:08;;;;;;;8.32;3.22;;;24.40;98.30;;;;;;5012339;28;20053;-61
2022/08/22 10:58:54;;;;;;;8.75;2.45;;;24.30;98.40;;;;;;4994933;28;20498;-62
2022/08/22 11:01:26;;;;;;;8.07;2.90;;;24.30;98.40;;;;;;5012653;28;20137;-61
2022/08/22 11:04:37;;;;;;;9.32;2.97;;;24.40;98.40;;;;;;5011297;28;20049;-61
2022/08/22 11:07:38;;;;;;;9.25;2.70;;;24.40;97.90;;;;;;5012746;28;20046;-61
2022/08/22 11:10:46;;;;;;;7.95;2.63;;;24.30;97.80;;;;;;4993402;28;20064;-61
2022/08/22 11:13:25;;;;;;;8.73;2.55;;;24.20;97.70;;;;;;5012576;28;20058;-61
2022/08/22 11:16:11;;;;;;;9.68;2.72;;;24.20;98.20;;;;;;5010499;28;20065;-62
2022/08/22 11:18:56;;;;;;;6.22;2.22;;;24.20;98.20;;;;;;5011991;28;20054;-61
2022/08/22 11:21:52;;;;;;;8.77;2.42;;;24.20;97.90;;;;;;5011282;28;20050;-60
2022/08/22 11:24:30;;;;;;;10.50;2.85;;;24.40;98.00;;;;;;5012362;28;20045;-60
2022/08/22 11:27:40;;;;;;;9.88;2.38;;;24.50;97.40;;;;;;5011206;28;20042;-60
2022/08/22 11:30:16;;;;;;;7.47;2.80;;;24.50;97.00;;;;;;4983825;28;20050;-59
2022/08/22 11:32:57;;;;;;;12.05;2.90;;;24.40;96.90;;;;;;5010944;28;20436;-59
2022/08/22 11:35:34;;;;;;;8.45;2.80;;;24.40;96.50;;;;;;5012224;28;20391;-59
2022/08/22 11:38:01;;;;;;;9.63;2.58;;;24.40;96.90;;;;;;5012257;28;20403;-59
2022/08/22 11:40:46;;;;;;;8.68;2.50;;;24.50;97.10;;;;;;5012195;28;20125;-61
2022/08/22 11:43:39;;;;;;;9.88;2.65;;;24.60;97.10;;;;;;5012168;28;20042;-62
2022/08/22 11:46:32;;;;;;;8.60;2.53;;;24.60;96.00;;;;;;5011048;28;20037;-62
2022/08/22 11:49:48;;;;;;;7.55;2.70;;;24.60;95.90;;;;;;5001091;28;20069;-59
2022/08/22 11:52:30;;;;;;;7.30;2.20;;;24.40;95.30;;;;;;4977551;28;20057;-59
2022/08/22 11:55:23;;;;;;;10.13;2.80;;;24.50;95.50;;;;;;5010263;28;20042;-61
2022/08/22 11:58:01;;;;;;;7.53;2.83;;;24.60;96.10;;;;;;5010556;28;20115;-62
2022/08/22 12:00:50;;;;;;;7.30;2.50;;;24.80;96.10;;;;;;5012275;28;20088;-62
2022/08/22 12:03:37;;;;;;;8.02;2.30;;;24.90;96.10;;;;;;5012026;28;20042;-62
2022/08/22 12:06:25;;;;;;;8.02;2.30;;;24.90;95.60;;;;;;4994324;28;20045;-60
2022/08/22 12:09:12;;;;;;;7.72;2.25;;;24.80;95.60;;;;;;5012808;28;20132;-61
2022/08/22 12:11:52;;;;;;;8.73;2.22;;;24.80;95.30;;;;;;5015414;28;20045;-59
2022/08/22 12:14:55;;;;;;;7.95;2.40;;;24.90;95.50;;;;;;5014147;28;20061;-60
2022/08/22 12:17:52;;;;;;;9.00;2.80;;;24.80;95.50;;;;;;5014602;28;20140;-60
2022/08/22 12:20:34;;;;;;;10.38;2.88;;;24.80;95.70;;;;;;5015683;28;20046;-60
2022/08/22 12:23:44;;;;;;;8.48;2.55;;;24.60;95.90;;;;;;4981423;28;20506;-60
2022/08/22 12:26:24;;;;;;;9.68;2.80;;;24.50;96.00;;;;;;5015565;28;20149;-59
2022/08/22 12:28:59;;;;;;;8.55;2.65;;;24.50;96.00;;;;;;5015289;28;20050;-59
2022/08/22 12:32:00;;;;;;;8.57;2.60;;;24.40;95.80;;;;;;5015581;28;20129;-59
2022/08/22 12:34:38;;;;;;;9.35;2.78;;;24.40;96.00;;;;;;5013904;28;20092;-60
2022/08/22 12:37:09;;;;;;;8.93;2.60;;;24.50;95.90;;;;;;4997803;28;20395;-60
2022/08/22 12:39:53;;;;;;;7.20;2.40;;;24.60;96.00;;;;;;5015464;28;20432;-60
2022/08/22 12:42:30;;;;;;;7.97;2.47;;;24.60;96.00;;;;;;5014098;28;20179;-60
2022/08/22 12:45:18;;;;;;;7.50;2.50;;;24.80;95.40;;;;;;5014964;28;20053;-59
2022/08/22 12:47:46;;;;;;;8.27;2.50;;;25.00;95.70;;;;;;5014698;28;20100;-60
2022/08/22 12:50:27;;;;;;;5.90;2.17;;;25.00;94.70;;;;;;5015131;28;20096;-61
2022/08/22 12:53:05;;;;;;;8.15;2.55;;;24.90;95.20;;;;;;5013800;28;20483;-60
2022/08/22 12:55:48;;;;;;;9.52;2.17;;;25.00;94.80;;;;;;5015008;28;20042;-60
2022/08/22 12:58:57;;;;;;;7.40;2.33;;;24.90;94.90;;;;;;5014078;28;20042;-60
2022/08/22 13:01:23;;;;;;;5.82;1.98;;;24.90;94.20;;;;;;5013883;28;20053;-60
2022/08/22 13:03:58;;;;;;;7.32;2.67;;;24.90;94.40;;;;;;5014291;28;20042;-60
2022/08/22 13:06:35;;;;;;;7.55;2.35;;;25.00;94.30;;;;;;5014807;28;20050;-61
2022/08/22 13:09:22;;;;;;;9.15;2.88;;;25.10;94.40;;;;;;5014391;28;20045;-60
2022/08/22 13:11:50;;;;;;;7.43;2.40;;;25.10;94.10;;;;;;4996984;28;20185;-60
2022/08/22 13:14:23;;;;;;;8.48;2.03;;;25.20;94.20;;;;;;5014118;28;20061;-60
2022/08/22 13:17:04;;;;;;;7.68;2.30;;;25.20;93.80;;;;;;5013123;28;20058;-60
2022/08/22 13:19:43;;;;;;;8.68;2.17;;;25.10;93.80;;;;;;4996935;28;20061;-60
2022/08/22 13:22:18;;;;;;;7.60;2.70;;;25.10;94.00;;;;;;5013335;28;20144;-59
2022/08/22 13:25:10;;;;;;;8.95;2.45;;;25.10;93.90;;;;;;5013431;28;20041;-60
2022/08/22 13:27:45;;;;;;;7.82;2.20;;;25.00;93.60;;;;;;5013857;28;20136;-60
2022/08/22 13:30:28;;;;;;;9.98;2.60;;;24.90;93.50;;;;;;5014275;28;20060;-60
2022/08/22 13:33:01;;;;;;;7.97;2.60;;;24.80;93.60;;;;;;5013807;28;20483;-61
2022/08/22 13:35:38;;;;;;;5.40;2.25;;;24.80;93.90;;;;;;5014204;28;20041;-61
2022/08/22 13:38:07;;;;;;;4.95;1.70;;;24.80;93.70;;;;;;4996567;28;20045;-61
2022/08/22 13:40:36;;;;;;;6.75;2.25;;;24.80;93.70;;;;;;5012775;28;20125;-60
2022/08/22 13:43:09;;;;;;;6.38;2.10;;;24.80;93.60;;;;;;5013661;28;20056;-60
2022/08/22 13:45:38;;;;;;;6.70;2.22;;;24.70;93.50;;;;;;5014019;28;20038;-61
2022/08/22 13:48:14;;;;;;;5.47;2.45;;;24.70;93.80;;;;;;5012373;28;20072;-61
2022/08/22 13:51:08;;;;;;;5.63;2.08;;;24.70;93.80;;;;;;4996460;28;20061;-61
2022/08/22 13:53:38;;;;;;;11.27;2.60;;;24.70;93.80;;;;;;5007462;28;20423;-60
2022/08/22 13:56:24;;;;;;;8.20;2.30;;;24.60;93.60;;;;;;5013057;28;20551;-62
2022/08/22 13:58:56;;;;;;;6.28;2.40;;;24.60;94.00;;;;;;5012406;28;20050;-65
2022/08/22 14:01:36;;;;;;;7.78;2.60;;;24.50;94.10;;;;;;5013785;28;20089;-61
2022/08/22 14:04:29;;;;;;;8.38;2.55;;;24.60;94.10;;;;;;5012130;28;20491;-61